Japan Airlines Virtual Airport Information Service

Izumo Airport

ICAO: RJOC Country: Japan
Latitude: 35.4136 Longitude: 132.89
Latest Arrival : JAL277 (RJTT-RJOC) Latest Departure : BAW426 (RJOC-RJOW)


WX CaptureLIVE
Data provided by noaa.gov | Fetched at 14:17:00

METAR : RJOC 061100Z 26009KT 6000 FEW030 SCT045 BKN130 29/25 Q1009

TAF : RJOC 061105Z 0612/0718 20005KT 8000 FEW025 BKN040 TEMPO 0703/0709 4000 TSRA BR FEW008 SCT015 FEW020CB BKN025


Runway Data for RJOC
Data provided by openaviationdata.com

Runway ID Mag Var Hdg Length Elevation Surface ILS Freq ILS Id ILS Slope
7 -7 66° 6559 ft 6 ft Asphalt -- -- --
25 -7 246° 6559 ft 6 ft Asphalt 111.7 IXZ 0

Izumo Airport, Japan
Use only for reference purposes



Not for navigational purposes.